createdAt,value
2017-08-12T00:01:00.924Z,99449.38
2017-08-12T00:03:28.883Z,99444.61
2017-08-12T00:05:56.534Z,99444.28
2017-08-12T00:08:24.411Z,99447.56
2017-08-12T00:10:52.073Z,99446.51
2017-08-12T00:13:19.908Z,99438.88
2017-08-12T00:15:47.651Z,99434.33
2017-08-12T00:18:15.468Z,99436.93
2017-08-12T00:20:43.129Z,99439.76
2017-08-12T00:23:10.996Z,99432.86
2017-08-12T00:25:38.866Z,99431.34
2017-08-12T00:28:06.711Z,99429.63
2017-08-12T00:30:34.655Z,99429.56
2017-08-12T00:33:02.643Z,99429.88
2017-08-12T00:35:36.478Z,99428.08
2017-08-12T00:38:04.330Z,99423.62
2017-08-12T00:40:32.212Z,99418.75
2017-08-12T00:43:00.237Z,99422.00
2017-08-12T00:45:28.129Z,99418.75
2017-08-12T00:47:55.873Z,99414.17
2017-08-12T00:50:23.839Z,99408.14
2017-08-12T00:52:51.731Z,99400.94
2017-08-12T00:55:19.409Z,99406.70
2017-08-12T00:57:47.046Z,99401.22
2017-08-12T01:00:14.943Z,99397.55
2017-08-12T01:02:42.808Z,99398.90
2017-08-12T01:05:10.877Z,99399.32
2017-08-12T01:07:38.732Z,99400.58
2017-08-12T01:10:06.453Z,99393.92
2017-08-12T01:12:34.421Z,99390.89
2017-08-12T01:15:02.137Z,99392.61
2017-08-12T01:17:29.854Z,99388.27
2017-08-12T01:19:57.843Z,99386.22
2017-08-12T01:22:25.741Z,99386.79
2017-08-12T01:24:53.398Z,99384.41
2017-08-12T01:27:21.245Z,99387.88
2017-08-12T01:29:48.937Z,99387.62
2017-08-12T01:32:16.779Z,99381.02
2017-08-12T01:34:44.844Z,99388.23
2017-08-12T01:37:12.712Z,99383.14
2017-08-12T01:39:40.657Z,99376.81
2017-08-12T01:42:08.621Z,99382.15
2017-08-12T01:44:36.614Z,99378.23
2017-08-12T01:47:04.556Z,99378.11
2017-08-12T01:49:32.448Z,99378.24
2017-08-12T01:52:00.216Z,99384.09
2017-08-12T01:54:28.182Z,99377.54
2017-08-12T01:56:55.926Z,99375.56
2017-08-12T01:59:23.951Z,99377.66
2017-08-12T02:01:51.614Z,99366.25
2017-08-12T02:04:19.603Z,99368.53
2017-08-12T02:06:47.549Z,99371.41
2017-08-12T02:09:15.285Z,99380.23
2017-08-12T02:11:43.953Z,99374.14
2017-08-12T02:14:11.753Z,99376.35
2017-08-12T02:16:39.488Z,99379.23
2017-08-12T02:19:07.291Z,99380.61
2017-08-12T02:21:35.020Z,99376.12
2017-08-12T02:24:02.825Z,99378.34
2017-08-12T02:26:30.652Z,99379.04
2017-08-12T02:28:58.554Z,99376.47
2017-08-12T02:31:26.421Z,99380.45
2017-08-12T02:33:54.132Z,99379.14
2017-08-12T02:36:22.156Z,99380.75
2017-08-12T02:38:49.988Z,99382.77
2017-08-12T02:41:17.733Z,99385.80
2017-08-12T02:43:45.598Z,99380.16
2017-08-12T02:46:13.590Z,99383.58
2017-08-12T02:48:41.335Z,99373.77
2017-08-12T02:51:09.150Z,99372.45
2017-08-12T02:53:37.220Z,99377.54
2017-08-12T02:56:04.874Z,99373.61
2017-08-12T02:58:32.723Z,99374.06
2017-08-12T03:01:00.469Z,99376.28
2017-08-12T03:03:28.485Z,99376.63
2017-08-12T03:05:56.454Z,99376.02
2017-08-12T03:08:24.222Z,99366.50
2017-08-12T03:10:52.057Z,99366.48
2017-08-12T03:13:19.956Z,99373.36
2017-08-12T03:15:47.614Z,99373.29
2017-08-12T03:18:15.635Z,99375.70
2017-08-12T03:20:43.398Z,99370.22
2017-08-12T03:23:11.370Z,99370.44
2017-08-12T03:25:39.187Z,99375.47
2017-08-12T03:28:07.006Z,99372.85
2017-08-12T03:30:35.022Z,99377.33
2017-08-12T03:33:03.039Z,99373.70
2017-08-12T03:35:30.961Z,99371.30
2017-08-12T03:37:58.796Z,99365.66
2017-08-12T03:40:26.541Z,99367.97
2017-08-12T03:42:54.357Z,99369.88
2017-08-12T03:45:22.007Z,99366.19
2017-08-12T03:47:49.869Z,99368.81
2017-08-12T03:50:17.493Z,99371.27
2017-08-12T03:52:45.351Z,99360.16
2017-08-12T03:55:13.280Z,99365.33
2017-08-12T03:57:41.209Z,99367.34
2017-08-12T04:00:09.217Z,99359.91
2017-08-12T04:02:36.869Z,99361.98
2017-08-12T04:05:04.611Z,99356.55
2017-08-12T04:07:32.528Z,99349.69
2017-08-12T04:10:00.481Z,99352.09
2017-08-12T04:12:28.212Z,99347.16
2017-08-12T04:14:56.202Z,99351.58
2017-08-12T04:17:24.022Z,99357.48
2017-08-12T04:19:51.863Z,99351.88
2017-08-12T04:22:19.706Z,99349.30
2017-08-12T04:24:47.375Z,99346.96
2017-08-12T04:27:14.992Z,99345.23
2017-08-12T04:29:42.613Z,99345.07
2017-08-12T04:32:10.267Z,99348.70
2017-08-12T04:34:37.864Z,99347.25
2017-08-12T04:37:05.582Z,99344.08
2017-08-12T04:39:33.657Z,99346.86
2017-08-12T04:42:01.490Z,99350.83
2017-08-12T04:44:29.386Z,99344.04
2017-08-12T04:46:57.073Z,99350.73
2017-08-12T04:49:24.736Z,99333.58
2017-08-12T04:51:52.340Z,99339.61
2017-08-12T04:54:19.991Z,99330.62
2017-08-12T04:56:47.594Z,99330.42
2017-08-12T04:59:15.218Z,99335.53
2017-08-12T05:01:42.866Z,99332.23
2017-08-12T05:04:10.483Z,99330.61
2017-08-12T05:06:38.094Z,99337.38
2017-08-12T05:09:05.735Z,99327.02
2017-08-12T05:11:33.358Z,99321.48
2017-08-12T05:14:00.984Z,99318.47
2017-08-12T05:16:28.659Z,99333.23
2017-08-12T05:18:56.313Z,99329.91
2017-08-12T05:21:23.966Z,99329.53
2017-08-12T05:23:51.779Z,99330.59
2017-08-12T05:26:19.380Z,99332.22
2017-08-12T05:28:47.004Z,99331.16
2017-08-12T05:31:14.670Z,99327.36
2017-08-12T05:33:42.280Z,99336.23
2017-08-12T05:36:09.912Z,99332.52
2017-08-12T05:38:37.572Z,99341.14
2017-08-12T05:41:05.215Z,99336.92
2017-08-12T05:43:32.840Z,99333.14
2017-08-12T05:46:00.482Z,99326.15
2017-08-12T05:48:28.135Z,99326.03
2017-08-12T05:50:55.784Z,99326.95
2017-08-12T05:53:23.445Z,99323.37
2017-08-12T05:55:51.119Z,99327.61
2017-08-12T05:58:18.741Z,99324.59
2017-08-12T06:00:46.473Z,99324.53
2017-08-12T06:03:14.073Z,99326.59
2017-08-12T06:05:41.669Z,99321.00
2017-08-12T06:08:09.309Z,99318.10
2017-08-12T06:10:36.913Z,99317.13
2017-08-12T06:13:04.511Z,99319.93
2017-08-12T06:15:32.180Z,99319.37
2017-08-12T06:17:59.794Z,99320.49
2017-08-12T06:20:27.389Z,99315.78
2017-08-12T06:22:55.224Z,99312.21
2017-08-12T06:25:22.838Z,99313.45
2017-08-12T06:27:50.437Z,99311.08
2017-08-12T06:30:18.096Z,99307.83
2017-08-12T06:32:45.698Z,99310.62
2017-08-12T06:35:13.311Z,99311.88
2017-08-12T06:37:40.968Z,99306.84
2017-08-12T06:40:08.550Z,99314.42
2017-08-12T06:42:36.159Z,99315.79
2017-08-12T06:45:03.934Z,99306.98
2017-08-12T06:47:31.544Z,99308.62
2017-08-12T06:49:59.198Z,99303.36
2017-08-12T06:52:26.854Z,99303.91
2017-08-12T06:54:54.485Z,99303.73
2017-08-12T06:57:22.072Z,99312.38
2017-08-12T06:59:49.901Z,99307.20
2017-08-12T07:02:17.501Z,99302.01
2017-08-12T07:04:45.117Z,99309.67
2017-08-12T07:07:12.770Z,99304.79
2017-08-12T07:09:40.374Z,99310.64
2017-08-12T07:12:07.987Z,99312.76
2017-08-12T07:14:35.632Z,99311.45
2017-08-12T07:17:03.243Z,99310.99
2017-08-12T07:19:30.845Z,99315.27
2017-08-12T07:21:58.491Z,99306.23
2017-08-12T07:24:26.097Z,99305.38
2017-08-12T07:26:53.697Z,99303.27
2017-08-12T07:29:21.363Z,99298.45
2017-08-12T07:31:48.980Z,99294.66
2017-08-12T07:34:16.583Z,99300.49
2017-08-12T07:36:44.252Z,99297.23
2017-08-12T07:39:11.854Z,99286.69
2017-08-12T07:41:39.536Z,99293.54
2017-08-12T07:44:07.178Z,99295.39
2017-08-12T07:46:34.782Z,99287.72
2017-08-12T07:49:02.386Z,99295.62
2017-08-12T07:51:30.030Z,99287.88
2017-08-12T07:53:57.743Z,99279.45
2017-08-12T07:56:25.332Z,99288.34
2017-08-12T07:58:52.979Z,99280.18
2017-08-12T08:01:20.581Z,99286.47
2017-08-12T08:03:48.321Z,99283.98
2017-08-12T08:06:15.980Z,99284.36
2017-08-12T08:08:43.599Z,99276.17
2017-08-12T08:11:11.215Z,99280.57
2017-08-12T08:13:38.854Z,99270.63
2017-08-12T08:16:06.456Z,99278.05
2017-08-12T08:18:34.085Z,99268.53
2017-08-12T08:21:01.729Z,99270.80
2017-08-12T08:23:29.325Z,99265.53
2017-08-12T08:25:56.939Z,99272.00
2017-08-12T08:28:24.586Z,99264.87
2017-08-12T08:30:52.208Z,99265.70
2017-08-12T08:33:19.827Z,99272.83
2017-08-12T08:35:47.476Z,99265.98
2017-08-12T08:38:15.088Z,99268.45
2017-08-12T08:40:42.704Z,99267.44
2017-08-12T08:43:10.346Z,99271.34
2017-08-12T08:45:37.938Z,99256.46
2017-08-12T08:48:05.536Z,99263.95
2017-08-12T08:50:33.195Z,99257.45
2017-08-12T08:53:00.877Z,99266.31
2017-08-12T08:55:28.728Z,99258.53
2017-08-12T08:57:56.370Z,99255.69
2017-08-12T09:00:23.997Z,99261.27
2017-08-12T09:02:51.604Z,99251.27
2017-08-12T09:05:19.272Z,99256.61
2017-08-12T09:07:46.892Z,99259.34
2017-08-12T09:10:14.497Z,99249.03
2017-08-12T09:12:42.137Z,99255.06
2017-08-12T09:15:09.733Z,99255.92
2017-08-12T09:17:37.330Z,99254.98
2017-08-12T09:20:04.957Z,99262.06
2017-08-12T09:22:32.603Z,99256.73
2017-08-12T09:25:00.249Z,99255.14
2017-08-12T09:27:27.908Z,99259.06
2017-08-12T09:29:55.523Z,99245.73
2017-08-12T09:32:23.132Z,99250.89
2017-08-12T09:34:50.779Z,99241.94
2017-08-12T09:37:18.404Z,99241.87
2017-08-12T09:39:46.016Z,99241.98
2017-08-12T09:42:13.779Z,99242.35
2017-08-12T09:44:41.404Z,99243.66
2017-08-12T09:47:09.005Z,99238.58
2017-08-12T09:49:36.641Z,99241.88
2017-08-12T09:52:04.225Z,99242.48
2017-08-12T09:54:31.814Z,99231.89
2017-08-12T09:56:59.513Z,99237.88
2017-08-12T09:59:27.130Z,99235.56
2017-08-12T10:01:54.744Z,99242.86
2017-08-12T10:04:22.395Z,99240.84
2017-08-12T10:06:50.020Z,99245.44
2017-08-12T10:09:17.639Z,99237.13
2017-08-12T10:11:45.366Z,99240.69
2017-08-12T10:14:13.023Z,99235.15
2017-08-12T10:16:40.645Z,99231.67
2017-08-12T10:19:08.272Z,99232.22
2017-08-12T10:21:35.895Z,99227.27
2017-08-12T10:24:03.511Z,99226.13
2017-08-12T10:26:31.168Z,99227.03
2017-08-12T10:28:58.770Z,99221.91
2017-08-12T10:31:26.378Z,99220.12
2017-08-12T10:33:54.015Z,99220.49
2017-08-12T10:36:21.632Z,99209.41
2017-08-12T10:38:49.245Z,99207.92
2017-08-12T10:41:16.907Z,99205.70
2017-08-12T10:43:44.528Z,99207.38
2017-08-12T10:46:12.120Z,99204.62
2017-08-12T10:48:39.757Z,99200.80
2017-08-12T10:51:07.371Z,99200.41
2017-08-12T10:53:34.980Z,99193.58
2017-08-12T10:56:02.639Z,99195.89
2017-08-12T10:58:30.360Z,99198.78
2017-08-12T11:00:57.983Z,99191.04
2017-08-12T11:03:25.668Z,99192.73
2017-08-12T11:05:53.262Z,99187.32
2017-08-12T11:08:20.866Z,99189.91
2017-08-12T11:10:48.559Z,99181.24
2017-08-12T11:13:16.161Z,99180.08
2017-08-12T11:15:43.763Z,99172.22
2017-08-12T11:18:13.284Z,99173.62
2017-08-12T11:20:40.890Z,99172.50
2017-08-12T11:23:08.503Z,99176.55
2017-08-12T11:25:36.150Z,99169.98
2017-08-12T11:28:03.773Z,99164.69
2017-08-12T11:30:31.383Z,99170.50
2017-08-12T11:32:59.032Z,99168.97
2017-08-12T11:35:26.647Z,99175.23
2017-08-12T11:37:54.252Z,99163.03
2017-08-12T11:40:21.876Z,99151.78
2017-08-12T11:42:49.474Z,99149.03
2017-08-12T11:45:17.079Z,99147.20
2017-08-12T11:47:44.720Z,99141.63
2017-08-12T11:50:12.332Z,99139.41
2017-08-12T11:52:39.937Z,99132.27
2017-08-12T11:55:07.583Z,99133.67
2017-08-12T11:57:35.195Z,99125.53
2017-08-12T12:00:02.871Z,99125.13
2017-08-12T12:02:30.505Z,99125.09
2017-08-12T12:04:58.109Z,99121.57
2017-08-12T12:07:25.713Z,99122.56
2017-08-12T12:09:53.375Z,99126.36
2017-08-12T12:12:20.981Z,99124.81
2017-08-12T12:14:48.583Z,99120.88
2017-08-12T12:17:16.224Z,99110.41
2017-08-12T12:19:43.828Z,99118.89
2017-08-12T12:22:11.450Z,99109.75
2017-08-12T12:24:39.292Z,99105.27
2017-08-12T12:27:07.035Z,99100.42
2017-08-12T12:29:35.051Z,99098.05
2017-08-12T12:32:03.070Z,99096.17
2017-08-12T12:34:30.889Z,99091.67
2017-08-12T12:36:58.828Z,99082.73
2017-08-12T12:39:26.569Z,99085.98
2017-08-12T12:41:54.590Z,99086.44
2017-08-12T12:44:22.200Z,99078.34
2017-08-12T12:46:49.851Z,99074.97
2017-08-12T12:49:17.466Z,99070.44
2017-08-12T12:51:45.111Z,99064.09
2017-08-12T12:54:12.760Z,99061.05
2017-08-12T12:56:40.563Z,99053.95
2017-08-12T12:59:08.192Z,99056.02
2017-08-12T13:01:35.845Z,99058.67
2017-08-12T13:04:03.465Z,99065.41
2017-08-12T13:06:31.081Z,99060.16
2017-08-12T13:08:58.733Z,99045.26
2017-08-12T13:11:26.344Z,99044.48
2017-08-12T13:13:53.950Z,99042.11
2017-08-12T13:16:21.604Z,99037.30
2017-08-12T13:18:49.452Z,99043.45
2017-08-12T13:21:17.172Z,99047.80
2017-08-12T13:23:44.888Z,99036.60
2017-08-12T13:26:12.877Z,99031.66
2017-08-12T13:28:40.783Z,99027.24
2017-08-12T13:31:08.609Z,99021.36
2017-08-12T13:33:36.478Z,99027.18
2017-08-12T13:36:04.221Z,99023.49
2017-08-12T13:38:32.090Z,99022.16
2017-08-12T13:40:59.809Z,99011.66
2017-08-12T13:43:27.781Z,99016.66
2017-08-12T13:45:55.851Z,99005.41
2017-08-12T13:48:23.561Z,99002.48
2017-08-12T13:50:51.428Z,98992.27
2017-08-12T13:53:19.452Z,98999.59
2017-08-12T13:55:47.163Z,98991.94
2017-08-12T13:58:15.186Z,98986.91
2017-08-12T14:00:43.244Z,98980.52
2017-08-12T14:03:11.312Z,98990.30
2017-08-12T14:05:39.179Z,98985.11
2017-08-12T14:08:06.897Z,98985.73
2017-08-12T14:10:34.715Z,98988.94
2017-08-12T14:13:02.558Z,98979.36
2017-08-12T14:15:30.303Z,98970.66
2017-08-12T14:17:58.167Z,98977.48
2017-08-12T14:20:26.136Z,98968.71
2017-08-12T14:22:53.951Z,98969.54
2017-08-12T14:25:21.925Z,98957.14
2017-08-12T14:27:49.638Z,98953.20
2017-08-12T14:30:17.660Z,98946.24
2017-08-12T14:32:45.422Z,98944.25
2017-08-12T14:35:13.185Z,98939.82
2017-08-12T14:37:41.030Z,98940.44
2017-08-12T14:40:08.897Z,98934.43
2017-08-12T14:42:36.572Z,98928.04
2017-08-12T14:45:04.428Z,98935.86
2017-08-12T14:47:32.315Z,98926.95
2017-08-12T14:50:00.052Z,98932.52
2017-08-12T14:52:28.034Z,98934.78
2017-08-12T14:54:55.916Z,98930.80
2017-08-12T14:57:23.747Z,98917.06
2017-08-12T14:59:51.650Z,98911.11
2017-08-12T15:02:19.351Z,98918.88
2017-08-12T15:04:47.275Z,98914.56
2017-08-12T15:07:15.040Z,98920.34
2017-08-12T15:09:42.754Z,98910.97
2017-08-12T15:12:10.781Z,98910.80
2017-08-12T15:14:38.545Z,98907.80
2017-08-12T15:17:06.144Z,98909.97
2017-08-12T15:19:33.878Z,98893.68
2017-08-12T15:22:01.765Z,98894.68
2017-08-12T15:24:29.701Z,98889.33
2017-08-12T15:26:57.367Z,98892.11
2017-08-12T15:29:25.014Z,98897.09
2017-08-12T15:31:52.896Z,98892.11
2017-08-12T15:34:20.552Z,98895.12
2017-08-12T15:36:48.424Z,98883.95
2017-08-12T15:39:16.261Z,98881.94
2017-08-12T15:41:43.950Z,98877.97
2017-08-12T15:44:11.601Z,98875.19
2017-08-12T15:46:39.277Z,98871.39
2017-08-12T15:49:06.981Z,98873.39
2017-08-12T15:51:34.818Z,98866.24
2017-08-12T15:54:02.546Z,98875.35
2017-08-12T15:56:30.535Z,98875.89
2017-08-12T15:58:58.255Z,98870.52
2017-08-12T16:01:26.266Z,98864.34
2017-08-12T16:03:53.930Z,98868.30
2017-08-12T16:06:21.790Z,98867.88
2017-08-12T16:08:49.384Z,98862.09
2017-08-12T16:11:16.939Z,98863.86
2017-08-12T16:13:44.572Z,98861.42
2017-08-12T16:16:12.437Z,98861.16
2017-08-12T16:18:40.019Z,98863.55
2017-08-12T16:21:07.773Z,98860.47
2017-08-12T16:23:35.419Z,98861.42
2017-08-12T16:26:03.266Z,98860.79
2017-08-12T16:28:30.960Z,98865.44
2017-08-12T16:30:58.831Z,98859.05
2017-08-12T16:33:26.485Z,98855.83
2017-08-12T16:35:54.335Z,98856.53
2017-08-12T16:38:22.016Z,98865.44
2017-08-12T16:40:49.605Z,98859.59
2017-08-12T16:43:17.333Z,98857.33
2017-08-12T16:45:45.181Z,98854.42
2017-08-12T16:48:12.867Z,98843.80
2017-08-12T16:50:40.948Z,98845.02
2017-08-12T16:53:08.601Z,98840.34
2017-08-12T16:55:36.208Z,98828.73
2017-08-12T16:58:04.040Z,98829.16
2017-08-12T17:00:31.796Z,98827.42
2017-08-12T17:02:59.457Z,98827.77
2017-08-12T17:05:27.123Z,98829.38
2017-08-12T17:07:54.989Z,98826.03
2017-08-12T17:10:22.709Z,98831.99
2017-08-12T17:12:50.429Z,98830.45
2017-08-12T17:15:18.239Z,98827.47
2017-08-12T17:17:46.249Z,98822.45
2017-08-12T17:20:13.882Z,98822.79
2017-08-12T17:22:41.573Z,98826.30
2017-08-12T17:25:09.272Z,98831.18
2017-08-12T17:27:37.309Z,98827.14
2017-08-12T17:30:04.968Z,98824.95
2017-08-12T17:32:32.565Z,98822.16
2017-08-12T17:35:01.116Z,98827.14
2017-08-12T17:37:28.825Z,98830.85
2017-08-12T17:39:56.412Z,98840.09
2017-08-12T17:42:24.095Z,98839.08
2017-08-12T17:44:51.822Z,98840.00
2017-08-12T17:47:19.830Z,98842.83
2017-08-12T17:49:47.481Z,98844.17
2017-08-12T17:52:15.097Z,98844.28
2017-08-12T17:54:42.917Z,98846.39
2017-08-12T17:57:10.733Z,98858.64
2017-08-12T17:59:38.761Z,98862.73
2017-08-12T18:02:06.588Z,98864.32
2017-08-12T18:04:34.289Z,98860.83
2017-08-12T18:07:01.891Z,98867.13
2017-08-12T18:09:29.872Z,98865.02
2017-08-12T18:11:57.889Z,98865.67
2017-08-12T18:14:25.547Z,98869.61
2017-08-12T18:16:53.149Z,98880.59
2017-08-12T18:19:20.988Z,98882.00
2017-08-12T18:21:48.587Z,98878.08
2017-08-12T18:24:16.169Z,98881.13
2017-08-12T18:26:43.858Z,98884.53
2017-08-12T18:29:11.581Z,98893.17
2017-08-12T18:31:39.371Z,98889.74
2017-08-12T18:34:07.211Z,98888.23
2017-08-12T18:36:34.917Z,98887.25
2017-08-12T18:39:02.623Z,98894.09
2017-08-12T18:41:30.614Z,98894.20
2017-08-12T18:43:58.312Z,98893.66
2017-08-12T18:46:26.177Z,98893.98
2017-08-12T18:48:54.245Z,98891.48
2017-08-12T18:51:22.087Z,98895.52
2017-08-12T18:53:49.729Z,98890.55
2017-08-12T18:56:17.549Z,98898.86
2017-08-12T18:58:45.366Z,98898.05
2017-08-12T19:01:13.383Z,98903.09
2017-08-12T19:03:41.029Z,98902.86
2017-08-12T19:06:13.005Z,98910.59
2017-08-12T19:08:40.663Z,98912.22
2017-08-12T19:11:08.531Z,98904.09
2017-08-12T19:13:36.366Z,98905.23
2017-08-12T19:16:04.235Z,98904.69
2017-08-12T19:18:31.916Z,98906.22
2017-08-12T19:20:59.577Z,98913.76
2017-08-12T19:23:27.249Z,98897.80
2017-08-12T19:25:54.900Z,98906.88
2017-08-12T19:28:22.573Z,98904.20
2017-08-12T19:30:50.217Z,98906.52
2017-08-12T19:33:17.891Z,98910.02
2017-08-12T19:35:45.768Z,98912.30
2017-08-12T19:38:13.427Z,98913.91
2017-08-12T19:40:41.279Z,98908.91
2017-08-12T19:43:08.958Z,98914.48
2017-08-12T19:45:36.612Z,98914.24
2017-08-12T19:48:04.274Z,98908.86
2017-08-12T19:50:31.944Z,98913.03
2017-08-12T19:52:59.598Z,98917.80
2017-08-12T19:55:27.475Z,98914.13
2017-08-12T19:57:55.054Z,98922.55
2017-08-12T20:00:22.847Z,98926.89
2017-08-12T20:02:50.669Z,98918.52
2017-08-12T20:05:18.515Z,98919.54
2017-08-12T20:07:46.195Z,98930.12
2017-08-12T20:10:13.775Z,98929.14
2017-08-12T20:12:41.722Z,98925.94
2017-08-12T20:15:09.591Z,98922.47
2017-08-12T20:17:37.270Z,98918.91
2017-08-12T20:20:05.108Z,98923.95
2017-08-12T20:22:32.990Z,98916.52
2017-08-12T20:25:00.639Z,98915.72
2017-08-12T20:27:28.301Z,98910.87
2017-08-12T20:29:55.975Z,98918.64
2017-08-12T20:32:23.696Z,98921.63
2017-08-12T20:34:51.484Z,98919.20
2017-08-12T20:37:19.351Z,98911.37
2017-08-12T20:39:47.071Z,98910.87
2017-08-12T20:42:15.102Z,98912.45
2017-08-12T20:44:42.952Z,98912.02
2017-08-12T20:47:10.836Z,98918.42
2017-08-12T20:49:38.484Z,98912.67
2017-08-12T20:52:06.154Z,98912.02
2017-08-12T20:54:33.870Z,98911.12
2017-08-12T20:57:01.889Z,98914.31
2017-08-12T20:59:29.755Z,98917.08
2017-08-12T21:01:57.422Z,98913.72
2017-08-12T21:04:25.464Z,98905.78
2017-08-12T21:06:53.205Z,98906.70
2017-08-12T21:09:21.228Z,98903.87
2017-08-12T21:11:48.944Z,98901.17
2017-08-12T21:14:16.861Z,98902.50
2017-08-12T21:16:44.680Z,98906.70
2017-08-12T21:19:12.694Z,98909.63
2017-08-12T21:21:40.534Z,98900.59
2017-08-12T21:24:08.436Z,98900.11
2017-08-12T21:26:36.318Z,98894.66
2017-08-12T21:29:04.061Z,98894.98
2017-08-12T21:31:31.661Z,98895.61
2017-08-12T21:33:59.523Z,98884.60
2017-08-12T21:36:27.638Z,98887.27
2017-08-12T21:38:55.383Z,98892.22
2017-08-12T21:41:23.342Z,98894.67
2017-08-12T21:43:51.050Z,98889.03
2017-08-12T21:46:18.711Z,98885.47
2017-08-12T21:48:46.422Z,98879.78
2017-08-12T21:51:14.242Z,98880.72
2017-08-12T21:53:41.908Z,98876.30
2017-08-12T21:56:09.746Z,98878.15
2017-08-12T21:58:37.497Z,98874.86
2017-08-12T22:01:05.099Z,98872.36
2017-08-12T22:03:32.678Z,98882.97
2017-08-12T22:06:00.316Z,98882.02
2017-08-12T22:08:28.280Z,98875.23
2017-08-12T22:10:56.003Z,98881.75
2017-08-12T22:13:23.815Z,98884.97
2017-08-12T22:15:51.733Z,98884.42
2017-08-12T22:18:19.554Z,98882.69
2017-08-12T22:20:47.269Z,98877.34
2017-08-12T22:23:15.284Z,98866.05
2017-08-12T22:25:43.146Z,98858.55
2017-08-12T22:28:10.996Z,98867.79
2017-08-12T22:30:39.034Z,98874.26
2017-08-12T22:33:06.745Z,98875.14
2017-08-12T22:35:34.414Z,98871.34
2017-08-12T22:38:02.076Z,98851.16
2017-08-12T22:40:29.744Z,98862.17
2017-08-12T22:42:57.606Z,98862.98
2017-08-12T22:45:25.263Z,98867.77
2017-08-12T22:47:52.918Z,98868.68
2017-08-12T22:50:20.771Z,98867.36
2017-08-12T22:52:48.363Z,98863.78
2017-08-12T22:55:16.118Z,98868.31
2017-08-12T22:57:43.738Z,98859.53
2017-08-12T23:00:11.646Z,98865.94
2017-08-12T23:02:39.362Z,98860.19
2017-08-12T23:05:07.176Z,98861.67
2017-08-12T23:07:34.836Z,98861.55
2017-08-12T23:10:02.490Z,98853.94
2017-08-12T23:12:30.163Z,98867.52
2017-08-12T23:14:57.842Z,98857.83
2017-08-12T23:17:25.791Z,98860.92
2017-08-12T23:19:53.764Z,98856.21
2017-08-12T23:22:21.627Z,98857.69
2017-08-12T23:24:49.380Z,98865.34
2017-08-12T23:27:17.156Z,98862.96
2017-08-12T23:29:44.992Z,98864.77
2017-08-12T23:32:12.671Z,98869.06
2017-08-12T23:34:40.528Z,98869.81
2017-08-12T23:37:08.213Z,98872.17
2017-08-12T23:39:35.995Z,98853.31
2017-08-12T23:42:03.935Z,98869.02
2017-08-12T23:44:31.610Z,98873.23
2017-08-12T23:46:59.484Z,98877.01
2017-08-12T23:49:27.413Z,98886.44
2017-08-12T23:51:55.378Z,98883.05
2017-08-12T23:54:23.078Z,98882.17
2017-08-12T23:56:51.111Z,98888.09
2017-08-12T23:59:18.713Z,98880.05
